Time;durP1;ratioP1;P1;durP2;ratioP2;P2;SDS_P1;SDS_P2;PMS_P1;PMS_P2;Temp;Humidity;BMP_temperature;BMP_pressure;BME280_temperature;BME280_humidity;BME280_pressure;Samples;Min_cycle;Max_cycle;Signal;HPM_P1;HPM_P2
2022/02/09 00:00:56;;;;;;;;;;;;;;;8.89;59.68;100643.78;4307969;33;20373;-87
2022/02/09 00:03:23;;;;;;;;;;;;;;;8.64;59.66;100654.44;4308972;33;20018;-88
2022/02/09 00:06:02;;;;;;;;;;;;;;;8.63;59.66;100665.69;4319857;33;20039;-87
2022/02/09 00:08:27;;;;;;;;;;;;;;;8.62;59.66;100659.62;4332156;33;19976;-88
2022/02/09 00:10:58;;;;;;;;;;;;;;;8.53;59.66;100665.78;4307966;33;20034;-89
2022/02/09 00:18:57;;;;;;;;;;;;;;;8.54;59.66;100672.69;4320263;33;20000;-88
2022/02/09 00:24:08;;;;;;;;;;;;;;;8.82;59.68;100680.22;4320297;33;19987;-89
2022/02/09 00:27:07;;;;;;;;;;;;;;;8.82;59.67;100681.06;4333713;33;20023;-88
2022/02/09 00:37:45;;;;;;;;;;;;;;;8.96;59.69;100701.69;4333431;33;20042;-88
2022/02/09 01:57:32;;;;;;;;;;;;;;;9.13;59.69;100730.09;4324324;33;20089;-91
2022/02/09 01:59:58;;;;;;;;;;;;;;;9.15;59.69;100716.19;4309118;33;24264;-90
2022/02/09 02:02:23;;;;;;;;;;;;;;;9.29;59.70;100733.41;4321682;33;20034;-92
2022/02/09 02:04:48;;;;;;;;;;;;;;;9.50;59.71;100727.94;4309713;33;20020;-92
2022/02/09 02:07:27;;;;;;;;;;;;;;;9.49;59.71;100739.22;4322105;33;20039;-91
2022/02/09 02:09:53;;;;;;;;;;;;;;;9.42;59.71;100738.41;4310666;33;20003;-90
2022/02/09 02:12:21;;;;;;;;;;;;;;;9.35;59.71;100738.50;4309534;33;20042;-92
2022/02/09 02:15:37;;;;;;;;;;;;;;;9.50;59.71;100741.81;4310449;33;19952;-91
2022/02/09 02:17:41;;;;;;;;;;;;;;;9.57;59.71;100744.31;4324106;33;20027;-91
2022/02/09 02:20:23;;;;;;;;;;;;;;;9.65;59.72;100742.47;4310893;33;19995;-90
2022/02/09 02:23:29;;;;;;;;;;;;;;;9.56;59.71;100745.22;4308337;33;20391;-89
2022/02/09 02:31:11;;;;;;;;;;;;;;;9.60;59.72;100747.75;4332597;33;19995;-88
2022/02/09 02:34:38;;;;;;;;;;;;;;;9.70;59.72;100748.47;4321474;33;20010;-88
2022/02/09 02:47:14;;;;;;;;;;;;;;;9.77;59.72;100763.13;4324174;33;20681;-93
2022/02/09 03:08:56;;;;;;;;;;;;;;;10.00;59.74;100766.31;4323266;33;20068;-92
2022/02/09 03:11:47;;;;;;;;;;;;;;;10.14;59.74;100769.56;4322657;33;19987;-93
2022/02/09 03:14:18;;;;;;;;;;;;;;;10.02;59.74;100769.75;4333227;33;19984;-93
2022/02/09 03:16:58;;;;;;;;;;;;;;;9.73;59.73;100779.66;4310295;33;20003;-92
2022/02/09 03:19:41;;;;;;;;;;;;;;;9.70;59.72;100779.69;4309808;33;20102;-91
2022/02/09 03:25:06;;;;;;;;;;;;;;;9.94;59.73;100778.53;4315188;33;20382;-91
2022/02/09 03:58:48;;;;;;;;;;;;;;;9.92;59.73;100783.72;4333132;33;20005;-89
2022/02/09 04:01:15;;;;;;;;;;;;;;;9.84;59.72;100788.19;4320385;33;19976;-89
2022/02/09 04:03:40;;;;;;;;;;;;;;;9.89;59.73;100788.12;4309954;33;19980;-91
2022/02/09 04:06:06;;;;;;;;;;;;;;;9.81;59.73;100789.09;4307662;33;20011;-89
2022/02/09 04:08:35;;;;;;;;;;;;;;;9.74;59.73;100782.25;4319166;33;20035;-90
2022/02/09 04:11:13;;;;;;;;;;;;;;;9.80;59.73;100786.50;4306877;33;19998;-90
2022/02/09 04:16:38;;;;;;;;;;;;;;;9.83;59.72;100795.12;4320226;33;20015;-92
2022/02/09 04:19:15;;;;;;;;;;;;;;;9.63;59.71;100802.28;4308151;33;20000;-91
2022/02/09 04:38:21;;;;;;;;;;;;;;;10.06;59.74;100794.81;4319590;33;20269;-92
2022/02/09 04:46:01;;;;;;;;;;;;;;;9.95;59.73;100801.06;4318799;33;20250;-89
2022/02/09 04:48:40;;;;;;;;;;;;;;;9.94;59.74;100795.00;4307111;33;19960;-89
2022/02/09 04:56:47;;;;;;;;;;;;;;;10.11;59.74;100811.22;4321838;33;20309;-90
2022/02/09 05:26:05;;;;;;;;;;;;;;;10.21;59.75;100834.59;4321981;33;19998;-88
2022/02/09 05:28:30;;;;;;;;;;;;;;;10.33;59.76;100827.44;4332666;33;20019;-90
2022/02/09 05:30:56;;;;;;;;;;;;;;;10.31;59.75;100836.16;4320592;33;19995;-88
2022/02/09 05:33:22;;;;;;;;;;;;;;;10.27;59.75;100824.09;4320000;33;20035;-86
2022/02/09 05:35:48;;;;;;;;;;;;;;;10.34;59.76;100836.13;4319641;33;20027;-87
2022/02/09 05:38:13;;;;;;;;;;;;;;;10.30;59.75;100831.84;4336205;33;20019;-86
2022/02/09 05:40:39;;;;;;;;;;;;;;;10.53;59.76;100828.91;4343792;33;19980;-84
2022/02/09 05:43:04;;;;;;;;;;;;;;;10.54;59.76;100826.28;4334033;33;20034;-84
2022/02/09 05:51:07;;;;;;;;;;;;;;;10.40;59.76;100820.41;4335753;33;20019;-85
2022/02/09 05:53:59;;;;;;;;;;;;;;;10.36;59.76;100823.94;4320300;33;19995;-86
2022/02/09 05:59:15;;;;;;;;;;;;;;;10.48;59.76;100822.94;4319797;33;19992;-87
2022/02/09 06:01:38;;;;;;;;;;;;;;;10.49;59.77;100820.28;4321937;33;20039;-86
2022/02/09 06:04:03;;;;;;;;;;;;;;;10.49;59.77;100820.28;4319394;33;20341;-87
2022/02/09 06:06:29;;;;;;;;;;;;;;;10.36;59.76;100829.16;4319846;33;20291;-87
2022/02/09 06:08:55;;;;;;;;;;;;;;;10.28;59.75;100831.88;4306685;33;25459;-86
2022/02/09 06:11:28;;;;;;;;;;;;;;;10.24;59.74;100839.75;4319898;33;20006;-85
2022/02/09 06:21:55;;;;;;;;;;;;;;;10.52;59.76;100855.84;4332998;33;20030;-87
2022/02/09 06:24:21;;;;;;;;;;;;;;;10.54;59.76;100862.75;4319276;33;19992;-86
2022/02/09 06:26:46;;;;;;;;;;;;;;;10.58;59.77;100867.00;4324637;33;19976;-85
2022/02/09 06:29:12;;;;;;;;;;;;;;;10.47;59.76;100862.84;4332139;33;20001;-86
2022/02/09 06:31:37;;;;;;;;;;;;;;;10.39;59.76;100856.00;4332749;33;20003;-86
2022/02/09 06:34:03;;;;;;;;;;;;;;;10.52;59.76;100861.91;4331746;33;20031;-87
2022/02/09 06:36:29;;;;;;;;;;;;;;;10.53;59.76;100868.81;4318918;33;19995;-86
2022/02/09 06:38:55;;;;;;;;;;;;;;;10.44;59.76;100874.16;4332157;33;20011;-85
2022/02/09 06:41:20;;;;;;;;;;;;;;;10.51;59.77;100872.34;4331297;33;20295;-85
2022/02/09 06:43:45;;;;;;;;;;;;;;;10.28;59.75;100876.09;4332189;33;20010;-86
2022/02/09 06:46:10;;;;;;;;;;;;;;;10.28;59.75;100877.84;4318323;33;20262;-86
2022/02/09 06:48:36;;;;;;;;;;;;;;;10.35;59.76;100869.06;4332001;33;20006;-86
2022/02/09 06:51:10;;;;;;;;;;;;;;;10.18;59.75;100882.28;4330959;33;20003;-86
2022/02/09 06:53:46;;;;;;;;;;;;;;;10.08;59.73;100878.06;4331924;33;20039;-87
2022/02/09 06:56:22;;;;;;;;;;;;;;;10.24;59.75;100882.22;4330904;33;19984;-86
2022/02/09 06:58:58;;;;;;;;;;;;;;;10.21;59.75;100884.87;4318601;33;20000;-87
2022/02/09 07:01:24;;;;;;;;;;;;;;;10.34;59.75;100889.03;4318775;33;20431;-87
2022/02/09 07:03:49;;;;;;;;;;;;;;;10.30;59.75;100895.16;4330899;33;19988;-86
2022/02/09 07:06:14;;;;;;;;;;;;;;;10.41;59.76;100885.50;4330736;33;19975;-86
2022/02/09 07:08:47;;;;;;;;;;;;;;;10.26;59.76;100883.06;4330516;33;19992;-90
2022/02/09 07:11:15;;;;;;;;;;;;;;;10.15;59.75;100887.50;4334257;33;20055;-92
2022/02/09 07:13:40;;;;;;;;;;;;;;;10.07;59.74;100890.19;4320626;33;20000;-89
2022/02/09 07:16:06;;;;;;;;;;;;;;;10.10;59.74;100889.31;4320927;33;19987;-88
2022/02/09 07:18:31;;;;;;;;;;;;;;;9.96;59.74;100889.47;4333014;33;19998;-85
2022/02/09 07:21:03;;;;;;;;;;;;;;;10.04;59.74;100894.59;4333936;33;19980;-85
2022/02/09 07:26:28;;;;;;;;;;;;;;;10.13;59.75;100895.31;4323723;33;20016;-90
2022/02/09 07:28:54;;;;;;;;;;;;;;;10.31;59.75;100896.03;4317158;33;20047;-85
2022/02/09 07:31:20;;;;;;;;;;;;;;;10.33;59.76;100883.84;4318928;33;20011;-87
2022/02/09 07:33:46;;;;;;;;;;;;;;;10.47;59.77;100889.75;4317539;33;20346;-89
2022/02/09 07:36:12;;;;;;;;;;;;;;;10.55;59.77;100898.31;4318809;33;19991;-89
2022/02/09 07:38:39;;;;;;;;;;;;;;;10.59;59.77;100899.97;4319401;33;20634;-86
2022/02/09 07:41:05;;;;;;;;;;;;;;;10.46;59.76;100901.03;4305449;33;19992;-87
2022/02/09 07:53:57;;;;;;;;;;;;;;;11.12;59.80;100926.13;4304372;33;20366;-86
2022/02/09 07:56:22;;;;;;;;;;;;;;;11.03;59.80;100924.53;4305734;33;20547;-85
2022/02/09 07:58:48;;;;;;;;;;;;;;;11.13;59.80;100920.06;4315928;33;25025;-84
2022/02/09 08:01:13;;;;;;;;;;;;;;;11.19;59.80;100912.13;4304259;33;20043;-85
2022/02/09 08:03:39;;;;;;;;;;;;;;;11.25;59.81;100914.63;4317792;33;19984;-87
2022/02/09 08:06:05;;;;;;;;;;;;;;;11.43;59.82;100916.94;4304468;33;20029;-88
2022/02/09 08:08:32;;;;;;;;;;;;;;;11.40;59.82;100900.50;4293218;33;20340;-87
2022/02/09 08:11:10;;;;;;;;;;;;;;;11.46;59.82;100911.66;4308305;33;19996;-88
2022/02/09 08:23:33;;;;;;;;;;;;;;;11.35;59.81;100905.75;4307177;33;20015;-88
2022/02/09 08:27:34;;;;;;;;;;;;;;;11.72;59.83;100898.16;4333043;33;19997;-86
2022/02/09 08:33:28;;;;;;;;;;;;;;;11.70;59.84;100915.59;4336313;33;20365;-87
2022/02/09 08:35:29;;;;;;;;;;;;;;;11.85;59.85;100891.03;4331890;33;19991;-88
2022/02/09 08:37:57;;;;;;;;;;;;;;;11.86;59.85;100891.00;4340969;33;19980;-86
2022/02/09 08:40:23;;;;;;;;;;;;;;;12.04;59.85;100889.75;4335964;33;19964;-90
2022/02/09 08:42:51;;;;;;;;;;;;;;;12.07;59.85;100889.72;4345273;32;19968;-86
2022/02/09 08:45:16;;;;;;;;;;;;;;;11.86;59.84;100892.75;4326844;33;19956;-88
2022/02/09 08:47:42;;;;;;;;;;;;;;;11.79;59.84;100891.97;4330302;33;20318;-88
2022/02/09 08:50:07;;;;;;;;;;;;;;;11.67;59.83;100889.56;4330228;33;19980;-85
2022/02/09 08:52:32;;;;;;;;;;;;;;;11.74;59.83;100892.91;4330062;33;20023;-86
2022/02/09 08:54:58;;;;;;;;;;;;;;;11.42;59.81;100894.37;4329941;33;20004;-89
2022/02/09 08:57:24;;;;;;;;;;;;;;;11.33;59.81;100886.69;4329749;33;20039;-90
2022/02/09 08:59:51;;;;;;;;;;;;;;;11.55;59.82;100889.78;4329891;33;20002;-88
2022/02/09 09:02:19;;;;;;;;;;;;;;;11.74;59.83;100888.56;4329041;33;19996;-89
2022/02/09 09:04:53;;;;;;;;;;;;;;;11.65;59.83;100899.19;4321334;33;19996;-89
2022/02/09 09:07:24;;;;;;;;;;;;;;;11.61;59.83;100887.09;4335419;33;19988;-88
2022/02/09 09:10:15;;;;;;;;;;;;;;;11.84;59.84;100894.53;4333550;33;20062;-89
2022/02/09 10:35:14;;;;;;;;;;;;;;;12.77;59.89;100872.50;4332645;33;20031;-84
2022/02/09 10:37:39;;;;;;;;;;;;;;;12.93;59.90;100852.09;4332897;33;19976;-85
2022/02/09 10:40:11;;;;;;;;;;;;;;;12.91;59.90;100853.91;4331728;33;26152;-84
2022/02/09 10:42:37;;;;;;;;;;;;;;;13.04;59.91;100846.63;4332479;33;19984;-84
2022/02/09 10:45:07;;;;;;;;;;;;;;;12.83;59.89;100835.81;4332475;33;20063;-86
2022/02/09 10:47:36;;;;;;;;;;;;;;;12.86;59.89;100834.88;4331193;33;20270;-85
2022/02/09 10:50:35;;;;;;;;;;;;;;;12.98;59.90;100831.94;4331444;33;20000;-87
2022/02/09 10:53:01;;;;;;;;;;;;;;;12.88;59.90;100823.47;4331511;33;20046;-88
2022/02/09 10:55:30;;;;;;;;;;;;;;;12.73;59.89;100831.69;4331429;33;20429;-83
2022/02/09 10:58:04;;;;;;;;;;;;;;;12.73;59.90;100836.91;4330892;33;20307;-87
2022/02/09 11:00:30;;;;;;;;;;;;;;;12.68;59.89;100830.94;4332202;33;19992;-85
2022/02/09 11:02:55;;;;;;;;;;;;;;;12.63;59.88;100826.72;4331120;33;20089;-88
2022/02/09 11:05:20;;;;;;;;;;;;;;;12.72;59.88;100816.91;4318681;33;20318;-84
2022/02/09 11:07:48;;;;;;;;;;;;;;;12.59;59.88;100820.72;4331974;33;20027;-87
2022/02/09 11:10:14;;;;;;;;;;;;;;;12.54;59.88;100819.97;4331899;33;20488;-84
2022/02/09 11:12:40;;;;;;;;;;;;;;;12.76;59.89;100823.75;4332065;33;19999;-84
2022/02/09 11:15:05;;;;;;;;;;;;;;;12.91;59.90;100818.16;4331309;33;20388;-88
2022/02/09 11:17:32;;;;;;;;;;;;;;;12.80;59.89;100816.72;4331648;33;19992;-86
2022/02/09 11:19:57;;;;;;;;;;;;;;;12.83;59.90;100814.91;4330736;33;19987;-86
2022/02/09 11:22:27;;;;;;;;;;;;;;;12.89;59.90;100814.75;4331931;33;20288;-86
2022/02/09 11:25:10;;;;;;;;;;;;;;;13.15;59.91;100815.84;4334531;33;19984;-87
2022/02/09 11:27:38;;;;;;;;;;;;;;;12.93;59.90;100812.91;4332867;33;20335;-86
2022/02/09 11:30:14;;;;;;;;;;;;;;;12.78;59.89;100808.06;4350745;32;19974;-84
2022/02/09 11:32:57;;;;;;;;;;;;;;;12.81;59.90;100800.16;4331082;33;20031;-84
2022/02/09 11:35:32;;;;;;;;;;;;;;;13.14;59.91;100801.91;4338215;33;19963;-91
2022/02/09 11:43:30;;;;;;;;;;;;;;;13.23;59.91;100795.59;4332068;33;19988;-89
2022/02/09 11:56:44;;;;;;;;;;;;;;;13.79;59.95;100801.06;4322264;33;20009;-91
2022/02/09 12:11:19;;;;;;;;;;;;;;;13.67;59.94;100810.09;4311431;33;19984;-88
2022/02/09 12:19:06;;;;;;;;;;;;;;;14.45;59.98;100801.78;4320768;33;20132;-89
2022/02/09 12:21:42;;;;;;;;;;;;;;;14.63;60.00;100794.16;4321696;33;19984;-90
2022/02/09 12:24:27;;;;;;;;;;;;;;;14.50;59.98;100802.47;4323399;33;20000;-88
2022/02/09 12:26:58;;;;;;;;;;;;;;;14.37;59.97;100797.56;4344666;33;19991;-91
2022/02/09 12:29:27;;;;;;;;;;;;;;;14.30;59.97;100800.44;4333377;33;19987;-90
2022/02/09 12:31:52;;;;;;;;;;;;;;;14.40;59.99;100804.47;4331838;33;20419;-91
2022/02/09 12:34:22;;;;;;;;;;;;;;;14.56;59.99;100802.28;4333048;33;19995;-91
2022/02/09 12:36:47;;;;;;;;;;;;;;;14.68;59.99;100799.28;4344124;33;20010;-89
2022/02/09 12:39:15;;;;;;;;;;;;;;;14.85;60.01;100793.47;4333600;33;19995;-88
2022/02/09 12:41:40;;;;;;;;;;;;;;;14.57;59.99;100788.28;4346886;32;20273;-90
2022/02/09 12:44:07;;;;;;;;;;;;;;;14.70;59.99;100779.13;4344287;33;20022;-89
2022/02/09 12:46:35;;;;;;;;;;;;;;;14.74;60.00;100785.97;4344196;33;20006;-87
2022/02/09 12:49:07;;;;;;;;;;;;;;;14.85;60.00;100793.47;4333126;33;20041;-89
2022/02/09 12:51:32;;;;;;;;;;;;;;;14.52;59.99;100795.44;4333271;33;19979;-87
2022/02/09 12:54:00;;;;;;;;;;;;;;;14.63;60.00;100794.16;4333062;33;20007;-91
2022/02/09 12:56:26;;;;;;;;;;;;;;;14.64;60.00;100782.78;4331491;33;19991;-90
2022/02/09 12:58:58;;;;;;;;;;;;;;;14.47;59.98;100785.09;4344104;33;19987;-91
2022/02/09 13:01:24;;;;;;;;;;;;;;;14.46;59.98;100777.28;4344597;33;19980;-91
2022/02/09 13:03:49;;;;;;;;;;;;;;;14.18;59.97;100783.31;4344584;33;20000;-92
2022/02/09 13:06:14;;;;;;;;;;;;;;;14.23;59.97;100783.22;4331876;33;20006;-90
2022/02/09 13:09:06;;;;;;;;;;;;;;;14.41;59.99;100774.75;4345105;33;20014;-92
2022/02/09 13:12:01;;;;;;;;;;;;;;;14.28;59.98;100779.53;4331757;33;19998;-92
2022/02/09 13:14:35;;;;;;;;;;;;;;;14.35;59.98;100767.09;4318270;33;20002;-93
2022/02/09 14:32:11;;;;;;;;;;;;;;;14.86;60.00;100727.88;4336140;33;20024;-87
2022/02/09 14:53:29;;;;;;;;;;;;;;;14.76;60.00;100720.41;4334864;33;19982;-87
2022/02/09 14:56:53;;;;;;;;;;;;;;;14.85;60.00;100717.44;4332301;33;19992;-88
2022/02/09 14:58:44;;;;;;;;;;;;;;;14.76;60.00;100723.88;4318983;33;19972;-88
2022/02/09 15:01:23;;;;;;;;;;;;;;;14.71;60.00;100720.56;4319549;33;20344;-88
2022/02/09 15:09:44;;;;;;;;;;;;;;;14.57;59.99;100725.37;4307395;33;19979;-86
2022/02/09 15:22:22;;;;;;;;;;;;;;;14.61;59.99;100717.38;4319304;33;20010;-88
2022/02/09 15:24:49;;;;;;;;;;;;;;;14.64;60.00;100712.03;4318307;33;20392;-87
2022/02/09 15:27:20;;;;;;;;;;;;;;;14.60;59.99;100713.03;4318780;33;19980;-87
2022/02/09 15:29:46;;;;;;;;;;;;;;;14.56;60.00;100711.44;4320541;33;19986;-86
2022/02/09 15:32:56;;;;;;;;;;;;;;;14.50;59.99;100719.50;4334896;33;19988;-85
2022/02/09 15:35:08;;;;;;;;;;;;;;;14.42;59.99;100718.84;4329929;33;19999;-86
2022/02/09 15:37:45;;;;;;;;;;;;;;;14.42;59.99;100717.06;4342251;33;19952;-86
2022/02/09 15:40:30;;;;;;;;;;;;;;;14.34;59.98;100713.00;4337745;33;19975;-88
2022/02/09 15:43:39;;;;;;;;;;;;;;;14.34;59.98;100707.75;4322651;33;19988;-96
2022/02/09 16:05:32;;;;;;;;;;;;;;;13.48;59.93;100740.88;4322074;33;20023;-87
2022/02/09 16:10:48;;;;;;;;;;;;;;;13.04;59.91;100744.69;4336391;33;19979;-87
2022/02/09 16:19:30;;;;;;;;;;;;;;;12.82;59.91;100755.69;4333900;33;20351;-88
2022/02/09 16:21:50;;;;;;;;;;;;;;;12.63;59.89;100764.03;4333175;33;20321;-88
2022/02/09 16:46:24;;;;;;;;;;;;;;;11.66;59.83;100754.84;4332345;33;19994;-88
2022/02/09 16:49:00;;;;;;;;;;;;;;;11.38;59.82;100765.81;4333306;33;20624;-88
2022/02/09 16:51:27;;;;;;;;;;;;;;;11.23;59.81;100771.31;4335703;33;19984;-86
2022/02/09 16:56:48;;;;;;;;;;;;;;;11.27;59.81;100774.72;4332101;33;20039;-86
2022/02/09 17:20:50;;;;;;;;;;;;;;;10.25;59.77;100786.81;4334171;33;20494;-86
2022/02/09 17:23:15;;;;;;;;;;;;;;;10.24;59.76;100793.75;4332134;33;20036;-86
2022/02/09 17:25:40;;;;;;;;;;;;;;;10.22;59.75;100792.94;4331813;33;19991;-87
2022/02/09 17:28:09;;;;;;;;;;;;;;;10.22;59.75;100784.25;4331645;33;20003;-86
2022/02/09 17:31:00;;;;;;;;;;;;;;;9.98;59.74;100786.28;4331811;33;20004;-87
2022/02/09 17:36:10;;;;;;;;;;;;;;;9.65;59.73;100786.69;4332831;33;19983;-86
2022/02/09 17:38:43;;;;;;;;;;;;;;;9.63;59.72;100778.91;4327021;33;20035;-87
2022/02/09 17:55:27;;;;;;;;;;;;;;;9.02;59.68;100783.88;4318247;33;20372;-87
2022/02/09 18:00:17;;;;;;;;;;;;;;;8.97;59.69;100791.69;4318611;33;20326;-87
2022/02/09 18:02:44;;;;;;;;;;;;;;;9.00;59.69;100788.25;4315320;33;19992;-84
2022/02/09 18:05:17;;;;;;;;;;;;;;;9.09;59.69;100785.53;4317791;33;20006;-86
2022/02/09 18:07:45;;;;;;;;;;;;;;;9.06;59.69;100781.25;4318574;33;20010;-85
2022/02/09 18:10:45;;;;;;;;;;;;;;;9.05;59.69;100791.66;4317762;33;19999;-87
2022/02/09 19:03:38;;;;;;;;;;;;;;;7.98;59.63;100777.66;4332966;33;19994;-85
2022/02/09 19:06:15;;;;;;;;;;;;;;;7.90;59.62;100778.56;4319450;33;20011;-87
2022/02/09 19:08:57;;;;;;;;;;;;;;;7.84;59.62;100778.59;4330871;33;20030;-85
2022/02/09 19:14:17;;;;;;;;;;;;;;;7.52;59.60;100784.75;4331759;33;19997;-84
2022/02/09 19:32:59;;;;;;;;;;;;;;;7.19;59.59;100785.69;4303731;33;20043;-84
2022/02/09 19:49:17;;;;;;;;;;;;;;;6.76;59.56;100787.44;4316791;33;20008;-85
2022/02/09 19:51:37;;;;;;;;;;;;;;;6.91;59.56;100782.28;4308395;33;19993;-85
2022/02/09 19:56:36;;;;;;;;;;;;;;;6.57;59.54;100783.13;4317006;33;20345;-85
2022/02/09 19:59:08;;;;;;;;;;;;;;;6.61;59.55;100788.28;4315684;33;20334;-85
2022/02/09 20:01:36;;;;;;;;;;;;;;;6.39;59.53;100786.56;4315522;33;20000;-85
2022/02/09 20:04:04;;;;;;;;;;;;;;;6.61;59.55;100783.13;4317518;33;19968;-85
2022/02/09 20:06:29;;;;;;;;;;;;;;;6.74;59.56;100784.88;4316915;33;19969;-86
2022/02/09 20:08:54;;;;;;;;;;;;;;;6.80;59.56;100780.53;4315328;33;20012;-85
2022/02/09 20:11:19;;;;;;;;;;;;;;;6.81;59.56;100783.13;4314435;33;20373;-85
2022/02/09 20:13:46;;;;;;;;;;;;;;;6.75;59.56;100778.81;4314813;33;20334;-85
2022/02/09 20:16:11;;;;;;;;;;;;;;;6.58;59.55;100772.78;4316575;33;20027;-85
2022/02/09 20:18:37;;;;;;;;;;;;;;;6.57;59.54;100783.13;4317460;33;20008;-84
2022/02/09 20:21:02;;;;;;;;;;;;;;;6.39;59.54;100784.84;4316929;33;20038;-85
2022/02/09 20:23:28;;;;;;;;;;;;;;;6.41;59.54;100782.25;4318996;33;19980;-83
2022/02/09 20:25:53;;;;;;;;;;;;;;;6.52;59.55;100787.44;4328097;33;20031;-83
2022/02/09 20:28:19;;;;;;;;;;;;;;;6.25;59.52;100780.50;4318744;33;20048;-84
2022/02/09 20:30:51;;;;;;;;;;;;;;;6.53;59.54;100786.56;4319781;33;19976;-83
2022/02/09 20:33:20;;;;;;;;;;;;;;;6.14;59.53;100785.63;4319391;33;20325;-84
2022/02/09 20:35:46;;;;;;;;;;;;;;;6.05;59.51;100778.72;4317080;33;20066;-84
2022/02/09 20:38:17;;;;;;;;;;;;;;;6.19;59.52;100781.34;4317200;33;20326;-84
2022/02/09 20:40:56;;;;;;;;;;;;;;;6.00;59.52;100787.34;4317140;33;20051;-84
2022/02/09 20:43:23;;;;;;;;;;;;;;;6.11;59.52;100783.03;4318086;33;19980;-84
2022/02/09 20:46:02;;;;;;;;;;;;;;;5.97;59.52;100780.44;4316866;33;19996;-85
2022/02/09 20:48:28;;;;;;;;;;;;;;;5.98;59.50;100786.47;4316909;33;20008;-85
2022/02/09 20:50:55;;;;;;;;;;;;;;;5.69;59.50;100784.59;4318015;33;20033;-84
2022/02/09 20:53:21;;;;;;;;;;;;;;;5.64;59.50;100785.41;4304724;33;20035;-84
2022/02/09 20:55:46;;;;;;;;;;;;;;;5.75;59.49;100788.94;4318234;33;20084;-84
2022/02/09 20:58:12;;;;;;;;;;;;;;;5.83;59.51;100785.50;4318066;33;19988;-83
2022/02/09 21:03:16;;;;;;;;;;;;;;;5.82;59.50;100783.78;4316715;33;19988;-83
2022/02/09 21:05:54;;;;;;;;;;;;;;;5.90;59.50;100780.38;4316780;33;20031;-83
2022/02/09 21:13:36;;;;;;;;;;;;;;;6.04;59.51;100773.56;4316347;33;19976;-84
2022/02/09 21:31:57;;;;;;;;;;;;;;;5.53;59.49;100770.75;4292193;33;801729;-85
2022/02/09 21:56:14;;;;;;;;;;;;;;;5.29;59.47;100765.47;4299957;33;19980;-85
2022/02/09 21:58:51;;;;;;;;;;;;;;;5.27;59.48;100762.00;4317512;33;20251;-82
2022/02/09 22:28:36;;;;;;;;;;;;;;;4.67;59.44;100765.00;4316015;33;20047;-84
2022/02/09 22:47:35;;;;;;;;;;;;;;;4.86;59.45;100757.44;4315843;33;20002;-85
2022/02/09 22:55:18;;;;;;;;;;;;;;;4.99;59.46;100752.37;4315565;33;19991;-85
2022/02/09 22:57:51;;;;;;;;;;;;;;;4.95;59.46;100746.31;4315698;33;20364;-85
2022/02/09 23:06:29;;;;;;;;;;;;;;;5.09;59.46;100747.28;4314878;33;19984;-86
2022/02/09 23:14:40;;;;;;;;;;;;;;;5.10;59.47;100736.09;4315538;33;19980;-86
